Parlier, California
Current Conditions -  °F | °C
As of 9:53 PM on Tuesday 25 Nov 2014 (Local Time) from KFAT Reporting Station
Haze Haze  
Wind Chill: 47°   Ceiling: Unl
Heat Index: 49°   Visibility: 4mi
Dew Point: 45°   Wind: 6mph
Humidity: 86%   Direction: 60°ENE
Pressure: 30.39"   Gusts: NA
Location:  36.61°N, 119.52°W
Report Text: KFAT 260553Z 06005KT 4SM BR CLR 09/07 A3039 RMK AO2 SLP292 T00940072 10178 20094 50003
Loading
Personal Weather Stations






























Interactive Weather Map New forecast layout! Learn more

10-Day Weather Forecast

Advertisements
Track Severe Weather on mobile